sensor_id;sensor_type;location;lat;lon;timestamp;P1;durP1;ratioP1;P2;durP2;ratioP2
78430;SDS011;67727;50.236;22.452;2023-05-07T00:00:20;10.60;;;5.10;;
78430;SDS011;67727;50.236;22.452;2023-05-07T00:03:07;7.60;;;5.00;;
78430;SDS011;67727;50.236;22.452;2023-05-07T00:05:34;5.70;;;4.20;;
78430;SDS011;67727;50.236;22.452;2023-05-07T00:08:01;8.30;;;4.20;;
78430;SDS011;67727;50.236;22.452;2023-05-07T00:10:28;8.60;;;4.70;;
78430;SDS011;67727;50.236;22.452;2023-05-07T00:12:55;9.40;;;4.30;;
78430;SDS011;67727;50.236;22.452;2023-05-07T00:15:22;9.90;;;4.90;;
78430;SDS011;67727;50.236;22.452;2023-05-07T00:17:50;10.70;;;4.50;;
78430;SDS011;67727;50.236;22.452;2023-05-07T00:20:17;6.40;;;4.50;;
78430;SDS011;67727;50.236;22.452;2023-05-07T00:22:44;8.30;;;4.60;;
78430;SDS011;67727;50.236;22.452;2023-05-07T00:25:11;6.70;;;4.30;;
78430;SDS011;67727;50.236;22.452;2023-05-07T00:27:38;7.90;;;4.40;;
78430;SDS011;67727;50.236;22.452;2023-05-07T00:30:05;7.10;;;4.70;;
78430;SDS011;67727;50.236;22.452;2023-05-07T00:32:32;13.50;;;3.70;;
78430;SDS011;67727;50.236;22.452;2023-05-07T00:34:59;6.40;;;3.40;;
78430;SDS011;67727;50.236;22.452;2023-05-07T00:37:26;6.50;;;4.20;;
78430;SDS011;67727;50.236;22.452;2023-05-07T00:39:53;7.70;;;4.50;;
78430;SDS011;67727;50.236;22.452;2023-05-07T00:42:20;7.70;;;4.30;;
78430;SDS011;67727;50.236;22.452;2023-05-07T00:44:47;7.60;;;4.70;;
78430;SDS011;67727;50.236;22.452;2023-05-07T00:47:13;7.10;;;4.40;;
78430;SDS011;67727;50.236;22.452;2023-05-07T00:49:41;8.30;;;4.80;;
78430;SDS011;67727;50.236;22.452;2023-05-07T00:52:11;7.90;;;4.20;;
78430;SDS011;67727;50.236;22.452;2023-05-07T00:54:40;9.30;;;4.00;;
78430;SDS011;67727;50.236;22.452;2023-05-07T00:59:37;6.90;;;4.40;;
78430;SDS011;67727;50.236;22.452;2023-05-07T01:02:04;7.50;;;4.50;;
78430;SDS011;67727;50.236;22.452;2023-05-07T01:04:31;9.90;;;5.20;;
78430;SDS011;67727;50.236;22.452;2023-05-07T01:06:58;8.90;;;4.70;;
78430;SDS011;67727;50.236;22.452;2023-05-07T01:09:27;6.60;;;4.30;;
78430;SDS011;67727;50.236;22.452;2023-05-07T01:14:23;8.40;;;4.30;;
78430;SDS011;67727;50.236;22.452;2023-05-07T01:16:52;9.00;;;4.20;;
78430;SDS011;67727;50.236;22.452;2023-05-07T01:19:19;9.60;;;5.20;;
78430;SDS011;67727;50.236;22.452;2023-05-07T01:21:47;6.90;;;4.80;;
78430;SDS011;67727;50.236;22.452;2023-05-07T01:24:15;8.10;;;4.70;;
78430;SDS011;67727;50.236;22.452;2023-05-07T01:26:42;7.50;;;4.90;;
78430;SDS011;67727;50.236;22.452;2023-05-07T01:29:10;6.80;;;4.60;;
78430;SDS011;67727;50.236;22.452;2023-05-07T01:31:38;6.50;;;4.70;;
78430;SDS011;67727;50.236;22.452;2023-05-07T01:34:07;8.30;;;4.60;;
78430;SDS011;67727;50.236;22.452;2023-05-07T01:36:37;7.70;;;3.50;;
78430;SDS011;67727;50.236;22.452;2023-05-07T01:39:06;12.80;;;4.30;;
78430;SDS011;67727;50.236;22.452;2023-05-07T01:41:35;5.40;;;3.90;;
78430;SDS011;67727;50.236;22.452;2023-05-07T01:44:02;5.80;;;3.80;;
78430;SDS011;67727;50.236;22.452;2023-05-07T01:46:31;5.80;;;4.10;;
78430;SDS011;67727;50.236;22.452;2023-05-07T01:48:59;11.90;;;5.00;;
78430;SDS011;67727;50.236;22.452;2023-05-07T01:51:25;8.90;;;4.90;;
78430;SDS011;67727;50.236;22.452;2023-05-07T01:53:53;5.20;;;3.00;;
78430;SDS011;67727;50.236;22.452;2023-05-07T01:56:20;5.30;;;4.20;;
78430;SDS011;67727;50.236;22.452;2023-05-07T01:58:47;4.80;;;3.40;;
78430;SDS011;67727;50.236;22.452;2023-05-07T02:01:14;6.00;;;3.60;;
78430;SDS011;67727;50.236;22.452;2023-05-07T02:03:41;7.30;;;4.30;;
78430;SDS011;67727;50.236;22.452;2023-05-07T02:06:08;6.00;;;4.00;;
78430;SDS011;67727;50.236;22.452;2023-05-07T02:08:34;6.00;;;4.30;;
78430;SDS011;67727;50.236;22.452;2023-05-07T02:11:02;6.40;;;3.70;;
78430;SDS011;67727;50.236;22.452;2023-05-07T02:13:29;8.10;;;4.20;;
78430;SDS011;67727;50.236;22.452;2023-05-07T02:15:58;10.10;;;4.60;;
78430;SDS011;67727;50.236;22.452;2023-05-07T02:18:25;6.40;;;3.90;;
78430;SDS011;67727;50.236;22.452;2023-05-07T02:20:52;7.70;;;4.20;;
78430;SDS011;67727;50.236;22.452;2023-05-07T02:23:19;6.10;;;3.40;;
78430;SDS011;67727;50.236;22.452;2023-05-07T02:25:45;9.70;;;4.30;;
78430;SDS011;67727;50.236;22.452;2023-05-07T02:28:12;6.70;;;4.40;;
78430;SDS011;67727;50.236;22.452;2023-05-07T02:30:39;6.40;;;4.00;;
78430;SDS011;67727;50.236;22.452;2023-05-07T02:33:06;11.80;;;4.70;;
78430;SDS011;67727;50.236;22.452;2023-05-07T02:35:34;7.10;;;5.10;;
78430;SDS011;67727;50.236;22.452;2023-05-07T02:38:01;5.80;;;3.90;;
78430;SDS011;67727;50.236;22.452;2023-05-07T02:40:28;7.50;;;3.80;;
78430;SDS011;67727;50.236;22.452;2023-05-07T02:42:55;4.60;;;3.90;;
78430;SDS011;67727;50.236;22.452;2023-05-07T02:45:22;5.90;;;4.10;;
78430;SDS011;67727;50.236;22.452;2023-05-07T02:47:48;5.20;;;3.40;;
78430;SDS011;67727;50.236;22.452;2023-05-07T02:50:16;5.70;;;3.90;;
78430;SDS011;67727;50.236;22.452;2023-05-07T02:52:43;5.80;;;3.90;;
78430;SDS011;67727;50.236;22.452;2023-05-07T02:55:10;4.50;;;3.30;;
78430;SDS011;67727;50.236;22.452;2023-05-07T02:57:37;5.10;;;3.90;;
78430;SDS011;67727;50.236;22.452;2023-05-07T03:00:16;6.40;;;4.60;;
78430;SDS011;67727;50.236;22.452;2023-05-07T03:02:45;10.20;;;4.90;;
78430;SDS011;67727;50.236;22.452;2023-05-07T03:05:12;8.60;;;5.30;;
78430;SDS011;67727;50.236;22.452;2023-05-07T03:07:39;12.10;;;5.90;;
78430;SDS011;67727;50.236;22.452;2023-05-07T03:15:00;9.00;;;5.00;;
78430;SDS011;67727;50.236;22.452;2023-05-07T03:17:27;7.80;;;5.00;;
78430;SDS011;67727;50.236;22.452;2023-05-07T03:19:54;5.60;;;4.40;;
78430;SDS011;67727;50.236;22.452;2023-05-07T03:22:21;10.80;;;5.30;;
78430;SDS011;67727;50.236;22.452;2023-05-07T03:24:47;9.30;;;5.10;;
78430;SDS011;67727;50.236;22.452;2023-05-07T03:27:14;5.20;;;4.00;;
78430;SDS011;67727;50.236;22.452;2023-05-07T03:29:41;7.30;;;3.50;;
78430;SDS011;67727;50.236;22.452;2023-05-07T03:32:08;12.30;;;4.40;;
78430;SDS011;67727;50.236;22.452;2023-05-07T03:34:34;7.90;;;5.20;;
78430;SDS011;67727;50.236;22.452;2023-05-07T03:37:01;7.60;;;5.50;;
78430;SDS011;67727;50.236;22.452;2023-05-07T03:39:28;8.30;;;5.40;;
78430;SDS011;67727;50.236;22.452;2023-05-07T03:41:55;9.40;;;4.90;;
78430;SDS011;67727;50.236;22.452;2023-05-07T03:44:22;8.40;;;5.90;;
78430;SDS011;67727;50.236;22.452;2023-05-07T03:46:48;7.50;;;5.50;;
78430;SDS011;67727;50.236;22.452;2023-05-07T03:49:15;9.00;;;5.50;;
78430;SDS011;67727;50.236;22.452;2023-05-07T03:51:42;6.80;;;4.90;;
78430;SDS011;67727;50.236;22.452;2023-05-07T03:54:09;16.40;;;5.80;;
78430;SDS011;67727;50.236;22.452;2023-05-07T03:56:36;12.50;;;5.60;;
78430;SDS011;67727;50.236;22.452;2023-05-07T03:59:03;10.80;;;4.80;;
78430;SDS011;67727;50.236;22.452;2023-05-07T04:01:29;14.10;;;5.80;;
78430;SDS011;67727;50.236;22.452;2023-05-07T04:03:56;5.90;;;4.80;;
78430;SDS011;67727;50.236;22.452;2023-05-07T04:06:23;7.80;;;4.50;;
78430;SDS011;67727;50.236;22.452;2023-05-07T04:08:50;7.90;;;4.90;;
78430;SDS011;67727;50.236;22.452;2023-05-07T04:11:17;7.70;;;4.60;;
78430;SDS011;67727;50.236;22.452;2023-05-07T04:13:44;10.00;;;4.40;;
78430;SDS011;67727;50.236;22.452;2023-05-07T04:16:10;8.40;;;4.60;;
78430;SDS011;67727;50.236;22.452;2023-05-07T04:18:37;6.40;;;4.50;;
78430;SDS011;67727;50.236;22.452;2023-05-07T04:21:05;5.90;;;4.20;;
78430;SDS011;67727;50.236;22.452;2023-05-07T04:23:32;5.70;;;4.40;;
78430;SDS011;67727;50.236;22.452;2023-05-07T04:25:59;6.30;;;4.00;;
78430;SDS011;67727;50.236;22.452;2023-05-07T04:28:27;7.00;;;4.30;;
78430;SDS011;67727;50.236;22.452;2023-05-07T04:30:53;7.80;;;4.20;;
78430;SDS011;67727;50.236;22.452;2023-05-07T04:33:20;6.90;;;4.90;;
78430;SDS011;67727;50.236;22.452;2023-05-07T04:35:47;7.10;;;3.90;;
78430;SDS011;67727;50.236;22.452;2023-05-07T04:38:14;6.90;;;4.20;;
78430;SDS011;67727;50.236;22.452;2023-05-07T04:40:41;9.40;;;5.10;;
78430;SDS011;67727;50.236;22.452;2023-05-07T04:43:08;8.00;;;4.60;;
78430;SDS011;67727;50.236;22.452;2023-05-07T04:45:35;8.60;;;4.90;;
78430;SDS011;67727;50.236;22.452;2023-05-07T04:52:56;8.60;;;4.70;;
78430;SDS011;67727;50.236;22.452;2023-05-07T04:55:23;5.80;;;4.40;;
78430;SDS011;67727;50.236;22.452;2023-05-07T04:57:51;6.00;;;4.50;;
78430;SDS011;67727;50.236;22.452;2023-05-07T05:00:18;5.20;;;3.30;;
78430;SDS011;67727;50.236;22.452;2023-05-07T05:02:46;7.90;;;4.70;;
78430;SDS011;67727;50.236;22.452;2023-05-07T05:05:12;4.50;;;3.30;;
78430;SDS011;67727;50.236;22.452;2023-05-07T05:07:39;6.00;;;4.30;;
78430;SDS011;67727;50.236;22.452;2023-05-07T05:10:06;5.80;;;4.00;;
78430;SDS011;67727;50.236;22.452;2023-05-07T05:12:33;9.90;;;4.70;;
78430;SDS011;67727;50.236;22.452;2023-05-07T05:15:00;6.20;;;3.80;;
78430;SDS011;67727;50.236;22.452;2023-05-07T05:17:26;6.40;;;5.00;;
78430;SDS011;67727;50.236;22.452;2023-05-07T05:19:53;8.50;;;4.80;;
78430;SDS011;67727;50.236;22.452;2023-05-07T05:22:20;6.90;;;4.50;;
78430;SDS011;67727;50.236;22.452;2023-05-07T05:24:47;6.40;;;4.20;;
78430;SDS011;67727;50.236;22.452;2023-05-07T05:27:14;8.30;;;4.20;;
78430;SDS011;67727;50.236;22.452;2023-05-07T05:29:41;5.30;;;3.60;;
78430;SDS011;67727;50.236;22.452;2023-05-07T05:32:07;5.10;;;3.90;;
78430;SDS011;67727;50.236;22.452;2023-05-07T05:34:34;6.80;;;4.00;;
78430;SDS011;67727;50.236;22.452;2023-05-07T05:37:01;7.80;;;4.40;;
78430;SDS011;67727;50.236;22.452;2023-05-07T05:39:28;6.10;;;3.60;;
78430;SDS011;67727;50.236;22.452;2023-05-07T05:41:55;5.20;;;4.00;;
78430;SDS011;67727;50.236;22.452;2023-05-07T05:44:22;6.10;;;3.50;;
78430;SDS011;67727;50.236;22.452;2023-05-07T05:46:48;4.70;;;3.20;;
78430;SDS011;67727;50.236;22.452;2023-05-07T05:49:21;4.80;;;3.60;;
78430;SDS011;67727;50.236;22.452;2023-05-07T05:51:48;6.30;;;4.90;;
78430;SDS011;67727;50.236;22.452;2023-05-07T05:54:15;4.70;;;3.80;;
78430;SDS011;67727;50.236;22.452;2023-05-07T05:56:42;6.40;;;3.90;;
78430;SDS011;67727;50.236;22.452;2023-05-07T05:59:09;10.40;;;4.70;;
78430;SDS011;67727;50.236;22.452;2023-05-07T06:01:36;5.80;;;4.30;;
78430;SDS011;67727;50.236;22.452;2023-05-07T06:04:03;7.70;;;4.20;;
78430;SDS011;67727;50.236;22.452;2023-05-07T06:06:30;6.00;;;3.80;;
78430;SDS011;67727;50.236;22.452;2023-05-07T06:08:57;10.50;;;4.10;;
78430;SDS011;67727;50.236;22.452;2023-05-07T06:11:24;5.40;;;4.00;;
78430;SDS011;67727;50.236;22.452;2023-05-07T06:16:18;5.90;;;3.70;;
78430;SDS011;67727;50.236;22.452;2023-05-07T06:18:45;5.20;;;3.80;;
78430;SDS011;67727;50.236;22.452;2023-05-07T06:21:13;7.40;;;4.30;;
78430;SDS011;67727;50.236;22.452;2023-05-07T06:23:40;19.40;;;9.80;;
78430;SDS011;67727;50.236;22.452;2023-05-07T06:26:07;8.20;;;5.50;;
78430;SDS011;67727;50.236;22.452;2023-05-07T06:28:34;13.10;;;5.50;;
78430;SDS011;67727;50.236;22.452;2023-05-07T06:31:15;7.00;;;4.40;;
78430;SDS011;67727;50.236;22.452;2023-05-07T06:33:44;12.20;;;6.20;;
78430;SDS011;67727;50.236;22.452;2023-05-07T06:36:11;19.40;;;11.10;;
78430;SDS011;67727;50.236;22.452;2023-05-07T06:38:38;23.00;;;10.90;;
78430;SDS011;67727;50.236;22.452;2023-05-07T06:41:08;11.20;;;6.90;;
78430;SDS011;67727;50.236;22.452;2023-05-07T06:43:35;9.60;;;6.70;;
78430;SDS011;67727;50.236;22.452;2023-05-07T06:46:02;8.80;;;6.70;;
78430;SDS011;67727;50.236;22.452;2023-05-07T06:48:29;6.80;;;5.20;;
78430;SDS011;67727;50.236;22.452;2023-05-07T06:50:55;14.60;;;7.90;;
78430;SDS011;67727;50.236;22.452;2023-05-07T06:53:24;6.70;;;4.10;;
78430;SDS011;67727;50.236;22.452;2023-05-07T06:55:52;11.60;;;6.30;;
78430;SDS011;67727;50.236;22.452;2023-05-07T06:58:19;11.60;;;6.90;;
78430;SDS011;67727;50.236;22.452;2023-05-07T07:00:45;16.60;;;9.70;;
78430;SDS011;67727;50.236;22.452;2023-05-07T07:03:12;7.50;;;5.60;;
78430;SDS011;67727;50.236;22.452;2023-05-07T07:05:42;9.80;;;4.40;;
78430;SDS011;67727;50.236;22.452;2023-05-07T07:08:09;6.80;;;4.50;;
78430;SDS011;67727;50.236;22.452;2023-05-07T07:10:36;4.90;;;3.90;;
78430;SDS011;67727;50.236;22.452;2023-05-07T07:13:03;9.40;;;4.70;;
78430;SDS011;67727;50.236;22.452;2023-05-07T07:15:30;8.70;;;4.50;;
78430;SDS011;67727;50.236;22.452;2023-05-07T07:17:57;7.10;;;4.60;;
78430;SDS011;67727;50.236;22.452;2023-05-07T07:20:24;6.50;;;4.60;;
78430;SDS011;67727;50.236;22.452;2023-05-07T07:22:50;8.30;;;4.90;;
78430;SDS011;67727;50.236;22.452;2023-05-07T07:25:17;9.90;;;5.60;;
78430;SDS011;67727;50.236;22.452;2023-05-07T07:27:44;7.10;;;4.50;;
78430;SDS011;67727;50.236;22.452;2023-05-07T07:30:11;6.90;;;4.80;;
78430;SDS011;67727;50.236;22.452;2023-05-07T07:32:38;8.10;;;4.40;;
78430;SDS011;67727;50.236;22.452;2023-05-07T07:35:05;7.10;;;4.50;;
78430;SDS011;67727;50.236;22.452;2023-05-07T07:37:32;9.80;;;4.80;;
78430;SDS011;67727;50.236;22.452;2023-05-07T07:39:59;7.50;;;4.50;;
78430;SDS011;67727;50.236;22.452;2023-05-07T07:42:26;7.60;;;5.70;;
78430;SDS011;67727;50.236;22.452;2023-05-07T07:44:53;10.40;;;5.40;;
78430;SDS011;67727;50.236;22.452;2023-05-07T07:47:20;10.10;;;5.20;;
78430;SDS011;67727;50.236;22.452;2023-05-07T07:49:47;5.70;;;3.90;;
78430;SDS011;67727;50.236;22.452;2023-05-07T07:52:14;7.90;;;4.20;;
78430;SDS011;67727;50.236;22.452;2023-05-07T07:54:41;10.10;;;4.00;;
78430;SDS011;67727;50.236;22.452;2023-05-07T07:57:07;5.20;;;3.20;;
78430;SDS011;67727;50.236;22.452;2023-05-07T07:59:34;6.70;;;4.20;;
78430;SDS011;67727;50.236;22.452;2023-05-07T08:02:01;6.10;;;4.20;;
78430;SDS011;67727;50.236;22.452;2023-05-07T08:04:28;7.80;;;3.90;;
78430;SDS011;67727;50.236;22.452;2023-05-07T08:06:55;9.90;;;4.20;;
78430;SDS011;67727;50.236;22.452;2023-05-07T08:09:22;8.80;;;5.00;;
78430;SDS011;67727;50.236;22.452;2023-05-07T08:11:49;8.00;;;5.30;;
78430;SDS011;67727;50.236;22.452;2023-05-07T08:14:16;8.10;;;4.80;;
78430;SDS011;67727;50.236;22.452;2023-05-07T08:16:42;6.10;;;4.00;;
78430;SDS011;67727;50.236;22.452;2023-05-07T08:19:09;5.50;;;4.60;;
78430;SDS011;67727;50.236;22.452;2023-05-07T08:21:40;5.50;;;4.50;;
78430;SDS011;67727;50.236;22.452;2023-05-07T08:24:07;10.10;;;6.10;;
78430;SDS011;67727;50.236;22.452;2023-05-07T08:26:33;10.50;;;5.50;;
78430;SDS011;67727;50.236;22.452;2023-05-07T08:29:02;9.70;;;6.80;;
78430;SDS011;67727;50.236;22.452;2023-05-07T08:31:29;9.20;;;6.40;;
78430;SDS011;67727;50.236;22.452;2023-05-07T08:33:56;11.70;;;7.50;;
78430;SDS011;67727;50.236;22.452;2023-05-07T08:36:24;9.50;;;6.90;;
78430;SDS011;67727;50.236;22.452;2023-05-07T08:43:49;5.40;;;3.90;;
78430;SDS011;67727;50.236;22.452;2023-05-07T08:46:20;7.10;;;4.20;;
78430;SDS011;67727;50.236;22.452;2023-05-07T08:48:48;7.30;;;5.10;;
78430;SDS011;67727;50.236;22.452;2023-05-07T08:51:17;10.10;;;5.70;;
78430;SDS011;67727;50.236;22.452;2023-05-07T08:53:47;5.70;;;4.10;;
78430;SDS011;67727;50.236;22.452;2023-05-07T08:56:15;6.60;;;4.70;;
78430;SDS011;67727;50.236;22.452;2023-05-07T09:01:18;5.70;;;3.60;;
78430;SDS011;67727;50.236;22.452;2023-05-07T09:03:45;11.10;;;4.80;;
78430;SDS011;67727;50.236;22.452;2023-05-07T09:06:13;7.00;;;5.00;;
78430;SDS011;67727;50.236;22.452;2023-05-07T09:08:40;8.30;;;6.00;;
78430;SDS011;67727;50.236;22.452;2023-05-07T09:11:07;6.30;;;4.70;;
78430;SDS011;67727;50.236;22.452;2023-05-07T09:13:34;36.90;;;22.10;;
78430;SDS011;67727;50.236;22.452;2023-05-07T09:16:10;18.70;;;13.00;;
78430;SDS011;67727;50.236;22.452;2023-05-07T09:18:48;83.80;;;36.00;;
78430;SDS011;67727;50.236;22.452;2023-05-07T09:21:18;75.50;;;27.80;;
78430;SDS011;67727;50.236;22.452;2023-05-07T09:23:47;95.60;;;42.00;;
78430;SDS011;67727;50.236;22.452;2023-05-07T09:26:17;67.20;;;31.30;;
78430;SDS011;67727;50.236;22.452;2023-05-07T09:28:44;31.20;;;14.10;;
78430;SDS011;67727;50.236;22.452;2023-05-07T09:31:12;18.80;;;8.80;;
78430;SDS011;67727;50.236;22.452;2023-05-07T09:33:39;9.50;;;5.30;;
78430;SDS011;67727;50.236;22.452;2023-05-07T09:38:35;16.80;;;7.20;;
78430;SDS011;67727;50.236;22.452;2023-05-07T09:43:34;15.80;;;8.60;;
78430;SDS011;67727;50.236;22.452;2023-05-07T09:46:12;13.80;;;8.70;;
78430;SDS011;67727;50.236;22.452;2023-05-07T09:48:41;12.30;;;7.20;;
78430;SDS011;67727;50.236;22.452;2023-05-07T09:51:33;14.50;;;8.10;;
78430;SDS011;67727;50.236;22.452;2023-05-07T09:54:02;15.10;;;8.10;;
78430;SDS011;67727;50.236;22.452;2023-05-07T09:56:30;20.20;;;8.60;;
78430;SDS011;67727;50.236;22.452;2023-05-07T09:59:01;13.90;;;7.40;;
78430;SDS011;67727;50.236;22.452;2023-05-07T10:01:30;8.00;;;4.30;;
78430;SDS011;67727;50.236;22.452;2023-05-07T10:03:58;15.20;;;8.20;;
78430;SDS011;67727;50.236;22.452;2023-05-07T10:06:25;10.10;;;5.30;;
78430;SDS011;67727;50.236;22.452;2023-05-07T10:08:52;15.60;;;8.00;;
78430;SDS011;67727;50.236;22.452;2023-05-07T10:11:21;13.80;;;6.80;;
78430;SDS011;67727;50.236;22.452;2023-05-07T10:13:48;17.20;;;6.80;;
78430;SDS011;67727;50.236;22.452;2023-05-07T10:16:17;5.70;;;3.60;;
78430;SDS011;67727;50.236;22.452;2023-05-07T10:18:45;7.70;;;5.60;;
78430;SDS011;67727;50.236;22.452;2023-05-07T10:21:16;13.60;;;7.10;;
78430;SDS011;67727;50.236;22.452;2023-05-07T10:23:45;8.20;;;6.00;;
78430;SDS011;67727;50.236;22.452;2023-05-07T10:26:17;18.50;;;8.80;;
78430;SDS011;67727;50.236;22.452;2023-05-07T10:28:49;20.60;;;8.80;;
78430;SDS011;67727;50.236;22.452;2023-05-07T10:34:15;11.40;;;7.40;;
78430;SDS011;67727;50.236;22.452;2023-05-07T10:36:47;13.40;;;6.40;;
78430;SDS011;67727;50.236;22.452;2023-05-07T10:39:16;21.10;;;9.20;;
78430;SDS011;67727;50.236;22.452;2023-05-07T10:41:43;21.80;;;10.00;;
78430;SDS011;67727;50.236;22.452;2023-05-07T10:44:10;20.30;;;8.50;;
78430;SDS011;67727;50.236;22.452;2023-05-07T10:46:37;28.70;;;10.10;;
78430;SDS011;67727;50.236;22.452;2023-05-07T10:51:35;40.00;;;15.30;;
78430;SDS011;67727;50.236;22.452;2023-05-07T10:56:41;21.70;;;8.70;;
78430;SDS011;67727;50.236;22.452;2023-05-07T11:01:54;14.40;;;6.80;;
78430;SDS011;67727;50.236;22.452;2023-05-07T11:04:24;15.50;;;6.10;;
78430;SDS011;67727;50.236;22.452;2023-05-07T11:07:38;17.70;;;7.10;;
78430;SDS011;67727;50.236;22.452;2023-05-07T11:09:58;10.00;;;4.70;;
78430;SDS011;67727;50.236;22.452;2023-05-07T11:15:10;24.10;;;8.90;;
78430;SDS011;67727;50.236;22.452;2023-05-07T11:17:57;40.60;;;12.20;;
78430;SDS011;67727;50.236;22.452;2023-05-07T11:26:00;12.60;;;5.80;;
78430;SDS011;67727;50.236;22.452;2023-05-07T11:28:30;11.50;;;6.10;;
78430;SDS011;67727;50.236;22.452;2023-05-07T11:30:57;11.10;;;5.40;;
78430;SDS011;67727;50.236;22.452;2023-05-07T11:33:25;10.90;;;6.40;;
78430;SDS011;67727;50.236;22.452;2023-05-07T11:35:53;9.50;;;4.80;;
78430;SDS011;67727;50.236;22.452;2023-05-07T11:38:20;8.90;;;5.40;;
78430;SDS011;67727;50.236;22.452;2023-05-07T11:40:50;7.80;;;3.90;;
78430;SDS011;67727;50.236;22.452;2023-05-07T11:43:17;4.20;;;3.30;;
78430;SDS011;67727;50.236;22.452;2023-05-07T11:45:47;4.60;;;3.70;;
78430;SDS011;67727;50.236;22.452;2023-05-07T11:48:16;5.60;;;3.60;;
78430;SDS011;67727;50.236;22.452;2023-05-07T11:50:52;5.50;;;3.90;;
78430;SDS011;67727;50.236;22.452;2023-05-07T11:53:27;4.00;;;2.80;;
78430;SDS011;67727;50.236;22.452;2023-05-07T11:56:05;4.70;;;3.60;;
78430;SDS011;67727;50.236;22.452;2023-05-07T11:58:36;4.80;;;3.40;;
78430;SDS011;67727;50.236;22.452;2023-05-07T12:01:03;4.90;;;3.50;;
78430;SDS011;67727;50.236;22.452;2023-05-07T12:03:30;6.80;;;3.30;;
78430;SDS011;67727;50.236;22.452;2023-05-07T12:05:57;3.80;;;2.80;;
78430;SDS011;67727;50.236;22.452;2023-05-07T12:08:26;4.90;;;3.50;;
78430;SDS011;67727;50.236;22.452;2023-05-07T12:10:53;5.40;;;3.40;;
78430;SDS011;67727;50.236;22.452;2023-05-07T12:13:21;6.00;;;3.20;;
78430;SDS011;67727;50.236;22.452;2023-05-07T12:15:52;5.00;;;3.60;;
78430;SDS011;67727;50.236;22.452;2023-05-07T12:18:22;6.30;;;4.50;;
78430;SDS011;67727;50.236;22.452;2023-05-07T12:20:49;6.40;;;4.10;;
78430;SDS011;67727;50.236;22.452;2023-05-07T12:23:17;4.40;;;3.30;;
78430;SDS011;67727;50.236;22.452;2023-05-07T12:25:44;7.20;;;4.30;;
78430;SDS011;67727;50.236;22.452;2023-05-07T12:28:15;4.10;;;3.10;;
78430;SDS011;67727;50.236;22.452;2023-05-07T12:30:43;4.90;;;3.80;;
78430;SDS011;67727;50.236;22.452;2023-05-07T12:33:11;4.10;;;3.30;;
78430;SDS011;67727;50.236;22.452;2023-05-07T12:35:39;4.10;;;3.50;;
78430;SDS011;67727;50.236;22.452;2023-05-07T12:38:11;5.90;;;3.80;;
78430;SDS011;67727;50.236;22.452;2023-05-07T12:40:40;4.80;;;3.50;;
78430;SDS011;67727;50.236;22.452;2023-05-07T12:43:21;4.30;;;2.90;;
78430;SDS011;67727;50.236;22.452;2023-05-07T12:45:51;4.10;;;3.40;;
78430;SDS011;67727;50.236;22.452;2023-05-07T12:48:20;8.20;;;4.40;;
78430;SDS011;67727;50.236;22.452;2023-05-07T12:50:50;8.10;;;4.40;;
78430;SDS011;67727;50.236;22.452;2023-05-07T12:53:20;6.00;;;3.20;;
78430;SDS011;67727;50.236;22.452;2023-05-07T12:55:49;5.00;;;3.30;;
78430;SDS011;67727;50.236;22.452;2023-05-07T12:58:18;3.70;;;2.90;;
78430;SDS011;67727;50.236;22.452;2023-05-07T13:00:56;4.20;;;3.00;;
78430;SDS011;67727;50.236;22.452;2023-05-07T13:03:27;3.40;;;3.10;;
78430;SDS011;67727;50.236;22.452;2023-05-07T13:05:56;3.10;;;2.40;;
78430;SDS011;67727;50.236;22.452;2023-05-07T13:10:57;13.00;;;5.80;;
78430;SDS011;67727;50.236;22.452;2023-05-07T13:13:26;22.40;;;8.70;;
78430;SDS011;67727;50.236;22.452;2023-05-07T13:15:52;15.20;;;6.70;;
78430;SDS011;67727;50.236;22.452;2023-05-07T13:18:19;10.00;;;5.40;;
78430;SDS011;67727;50.236;22.452;2023-05-07T13:20:46;8.50;;;4.00;;
78430;SDS011;67727;50.236;22.452;2023-05-07T13:23:13;5.80;;;3.90;;
78430;SDS011;67727;50.236;22.452;2023-05-07T13:25:40;5.40;;;3.60;;
78430;SDS011;67727;50.236;22.452;2023-05-07T13:28:07;9.60;;;4.50;;
78430;SDS011;67727;50.236;22.452;2023-05-07T13:30:33;6.70;;;4.10;;
78430;SDS011;67727;50.236;22.452;2023-05-07T13:33:01;4.50;;;2.90;;
78430;SDS011;67727;50.236;22.452;2023-05-07T13:37:55;4.70;;;3.40;;
78430;SDS011;67727;50.236;22.452;2023-05-07T13:40:22;7.30;;;4.00;;
78430;SDS011;67727;50.236;22.452;2023-05-07T13:42:49;6.20;;;3.60;;
78430;SDS011;67727;50.236;22.452;2023-05-07T13:45:17;7.20;;;4.90;;
78430;SDS011;67727;50.236;22.452;2023-05-07T13:47:45;9.00;;;4.70;;
78430;SDS011;67727;50.236;22.452;2023-05-07T13:50:12;6.10;;;4.10;;
78430;SDS011;67727;50.236;22.452;2023-05-07T13:52:43;5.60;;;4.10;;
78430;SDS011;67727;50.236;22.452;2023-05-07T13:55:19;7.40;;;4.70;;
78430;SDS011;67727;50.236;22.452;2023-05-07T13:57:47;5.30;;;4.20;;
78430;SDS011;67727;50.236;22.452;2023-05-07T14:00:14;4.50;;;3.10;;
78430;SDS011;67727;50.236;22.452;2023-05-07T14:02:42;6.30;;;4.00;;
78430;SDS011;67727;50.236;22.452;2023-05-07T14:05:10;4.60;;;3.10;;
78430;SDS011;67727;50.236;22.452;2023-05-07T14:07:36;3.90;;;3.50;;
78430;SDS011;67727;50.236;22.452;2023-05-07T14:10:03;3.70;;;3.10;;
78430;SDS011;67727;50.236;22.452;2023-05-07T14:14:58;8.50;;;5.30;;
78430;SDS011;67727;50.236;22.452;2023-05-07T14:17:25;15.20;;;11.10;;
78430;SDS011;67727;50.236;22.452;2023-05-07T14:19:54;11.00;;;6.10;;
78430;SDS011;67727;50.236;22.452;2023-05-07T14:24:49;8.80;;;6.20;;
78430;SDS011;67727;50.236;22.452;2023-05-07T14:27:16;5.80;;;3.90;;
78430;SDS011;67727;50.236;22.452;2023-05-07T14:29:43;5.20;;;3.60;;
78430;SDS011;67727;50.236;22.452;2023-05-07T14:32:11;4.90;;;3.30;;
78430;SDS011;67727;50.236;22.452;2023-05-07T14:34:38;5.40;;;3.30;;
78430;SDS011;67727;50.236;22.452;2023-05-07T14:37:05;6.90;;;3.80;;
78430;SDS011;67727;50.236;22.452;2023-05-07T14:39:32;4.30;;;3.40;;
78430;SDS011;67727;50.236;22.452;2023-05-07T14:41:59;5.30;;;3.70;;
78430;SDS011;67727;50.236;22.452;2023-05-07T14:44:26;9.00;;;5.90;;
78430;SDS011;67727;50.236;22.452;2023-05-07T14:46:53;8.70;;;5.00;;
78430;SDS011;67727;50.236;22.452;2023-05-07T14:49:20;12.20;;;6.10;;
78430;SDS011;67727;50.236;22.452;2023-05-07T14:51:47;23.80;;;12.30;;
78430;SDS011;67727;50.236;22.452;2023-05-07T14:54:13;9.30;;;6.60;;
78430;SDS011;67727;50.236;22.452;2023-05-07T14:56:41;10.80;;;5.70;;
78430;SDS011;67727;50.236;22.452;2023-05-07T14:59:08;6.90;;;4.20;;
78430;SDS011;67727;50.236;22.452;2023-05-07T15:01:36;10.50;;;5.00;;
78430;SDS011;67727;50.236;22.452;2023-05-07T15:04:04;8.70;;;5.80;;
78430;SDS011;67727;50.236;22.452;2023-05-07T15:06:31;8.50;;;5.10;;
78430;SDS011;67727;50.236;22.452;2023-05-07T15:08:58;7.60;;;4.60;;
78430;SDS011;67727;50.236;22.452;2023-05-07T15:11:26;13.80;;;7.50;;
78430;SDS011;67727;50.236;22.452;2023-05-07T15:13:53;10.40;;;6.20;;
78430;SDS011;67727;50.236;22.452;2023-05-07T15:16:20;6.90;;;5.20;;
78430;SDS011;67727;50.236;22.452;2023-05-07T15:18:47;5.30;;;4.40;;
78430;SDS011;67727;50.236;22.452;2023-05-07T15:23:41;7.10;;;4.20;;
78430;SDS011;67727;50.236;22.452;2023-05-07T15:26:08;6.10;;;4.20;;
78430;SDS011;67727;50.236;22.452;2023-05-07T15:28:35;7.70;;;4.40;;
78430;SDS011;67727;50.236;22.452;2023-05-07T15:31:01;6.40;;;4.40;;
78430;SDS011;67727;50.236;22.452;2023-05-07T15:33:28;7.00;;;4.20;;
78430;SDS011;67727;50.236;22.452;2023-05-07T15:35:55;6.00;;;3.90;;